createdAt,value
2023-02-23T00:01:27.742Z,9.52
2023-02-23T00:03:56.628Z,9.51
2023-02-23T00:06:25.723Z,9.55
2023-02-23T00:08:54.232Z,9.62
2023-02-23T00:11:22.480Z,9.64
2023-02-23T00:13:52.031Z,9.63
2023-02-23T00:16:21.578Z,9.61
2023-02-23T00:18:50.849Z,9.61
2023-02-23T00:21:20.742Z,9.59
2023-02-23T00:23:51.029Z,9.52
2023-02-23T00:26:20.760Z,9.49
2023-02-23T00:28:51.818Z,9.44
2023-02-23T00:31:23.582Z,9.42
2023-02-23T00:33:51.591Z,9.37
2023-02-23T00:36:19.079Z,9.34
2023-02-23T00:38:46.563Z,9.32
2023-02-23T00:41:17.737Z,9.29
2023-02-23T00:43:47.528Z,9.28
2023-02-23T00:46:17.835Z,9.28
2023-02-23T00:48:46.125Z,9.30
2023-02-23T00:51:14.517Z,9.38
2023-02-23T00:53:42.687Z,9.46
2023-02-23T00:56:12.031Z,9.51
2023-02-23T00:58:39.714Z,9.48
2023-02-23T01:01:07.777Z,9.47
2023-02-23T01:03:37.680Z,9.43
2023-02-23T01:06:07.912Z,9.37
2023-02-23T01:08:36.523Z,9.31
2023-02-23T01:11:09.274Z,9.27
2023-02-23T01:13:37.188Z,9.28
2023-02-23T01:16:07.031Z,9.31
2023-02-23T01:18:38.054Z,9.33
2023-02-23T01:21:07.070Z,9.33
2023-02-23T01:23:34.606Z,9.29
2023-02-23T01:26:02.138Z,9.28
2023-02-23T01:28:29.639Z,9.28
2023-02-23T01:30:57.308Z,9.26
2023-02-23T01:33:25.655Z,9.21
2023-02-23T01:36:01.430Z,9.17
2023-02-23T01:38:29.111Z,9.13
2023-02-23T01:40:56.647Z,9.08
2023-02-23T01:43:26.488Z,9.05
2023-02-23T01:45:56.170Z,9.10
2023-02-23T01:48:27.750Z,9.11
2023-02-23T01:50:58.274Z,9.06
2023-02-23T01:53:29.940Z,9.02
2023-02-23T01:56:01.250Z,8.99
2023-02-23T01:58:30.195Z,8.96
2023-02-23T02:01:02.385Z,8.92
2023-02-23T02:03:34.286Z,8.88
2023-02-23T02:06:04.115Z,8.86
2023-02-23T02:08:34.811Z,8.86
2023-02-23T02:11:09.317Z,8.86
2023-02-23T02:13:37.794Z,8.85
2023-02-23T02:16:22.519Z,8.82
2023-02-23T02:19:06.028Z,8.84
2023-02-23T02:22:00.607Z,8.89
2023-02-23T02:24:47.757Z,8.91
2023-02-23T02:27:28.987Z,8.91
2023-02-23T02:30:35.324Z,8.88
2023-02-23T02:33:37.953Z,8.86
2023-02-23T02:36:27.942Z,8.86
2023-02-23T02:39:08.049Z,8.90
2023-02-23T02:41:42.299Z,8.94
2023-02-23T02:44:16.597Z,9.01
2023-02-23T02:46:48.943Z,9.04
2023-02-23T02:49:27.552Z,9.03
2023-02-23T02:52:02.074Z,9.00
2023-02-23T02:54:36.950Z,9.03
2023-02-23T02:57:06.731Z,9.04
2023-02-23T03:00:01.697Z,9.05
2023-02-23T03:02:48.053Z,9.05
2023-02-23T03:05:33.982Z,9.03
2023-02-23T03:08:29.358Z,9.00
2023-02-23T03:11:21.570Z,8.95
2023-02-23T03:14:16.180Z,8.92
2023-02-23T03:17:10.182Z,8.99
2023-02-23T03:20:00.710Z,9.07
2023-02-23T03:22:50.665Z,9.08
2023-02-23T03:25:45.042Z,9.03
2023-02-23T03:28:36.691Z,8.94
2023-02-23T03:31:30.921Z,8.93
2023-02-23T03:34:22.033Z,8.93
2023-02-23T03:36:49.359Z,8.93
2023-02-23T03:39:41.753Z,8.90
2023-02-23T03:42:31.455Z,8.87
2023-02-23T03:45:22.405Z,8.87
2023-02-23T03:48:09.756Z,8.86
2023-02-23T03:51:00.234Z,8.87
2023-02-23T03:53:51.775Z,8.86
2023-02-23T03:56:39.696Z,8.83
2023-02-23T03:59:26.410Z,8.84
2023-02-23T04:02:14.634Z,8.86
2023-02-23T04:05:01.509Z,8.88
2023-02-23T04:07:47.637Z,8.93
2023-02-23T04:10:33.002Z,9.00
2023-02-23T04:13:14.792Z,9.10
2023-02-23T04:15:47.754Z,9.13
2023-02-23T04:18:19.302Z,9.14
2023-02-23T04:20:46.947Z,9.12
2023-02-23T04:23:14.502Z,9.08
2023-02-23T04:25:42.079Z,9.06
2023-02-23T04:28:09.558Z,9.04
2023-02-23T04:30:37.178Z,9.02
2023-02-23T04:33:05.233Z,8.99
2023-02-23T04:35:34.430Z,8.98
2023-02-23T04:38:02.203Z,8.96
2023-02-23T04:40:30.072Z,8.97
2023-02-23T04:42:58.148Z,8.97
2023-02-23T04:45:26.881Z,8.95
2023-02-23T04:47:54.833Z,8.94
2023-02-23T04:50:22.777Z,8.99
2023-02-23T04:52:53.306Z,8.97
2023-02-23T04:55:22.729Z,8.93
2023-02-23T04:57:50.485Z,8.87
2023-02-23T05:00:19.487Z,8.85
2023-02-23T05:02:48.104Z,8.83
2023-02-23T05:05:17.229Z,8.81
2023-02-23T05:07:44.869Z,8.78
2023-02-23T05:10:14.293Z,8.75
2023-02-23T05:12:41.874Z,8.74
2023-02-23T05:15:10.995Z,8.74
2023-02-23T05:17:40.376Z,8.74
2023-02-23T05:20:08.723Z,8.77
2023-02-23T05:22:36.232Z,8.77
2023-02-23T05:25:04.962Z,8.78
2023-02-23T05:27:34.388Z,8.78
2023-02-23T05:30:02.483Z,8.79
2023-02-23T05:32:30.020Z,8.80
2023-02-23T05:34:57.671Z,8.79
2023-02-23T05:37:25.488Z,8.79
2023-02-23T05:39:53.081Z,8.78
2023-02-23T05:42:21.044Z,8.78
2023-02-23T05:44:50.109Z,8.81
2023-02-23T05:47:17.979Z,8.83
2023-02-23T05:49:46.185Z,8.87
2023-02-23T05:52:13.772Z,8.89
2023-02-23T05:54:41.258Z,8.86
2023-02-23T05:57:09.062Z,8.84
2023-02-23T05:59:36.691Z,8.91
2023-02-23T06:02:06.097Z,8.95
2023-02-23T06:04:34.304Z,8.95
2023-02-23T06:07:02.039Z,8.96
2023-02-23T06:09:29.621Z,8.98
2023-02-23T06:11:59.533Z,9.00
2023-02-23T06:14:27.114Z,9.03
2023-02-23T06:16:54.879Z,9.11
2023-02-23T06:19:23.837Z,9.17
2023-02-23T06:21:53.013Z,9.21
2023-02-23T06:24:34.465Z,9.29
2023-02-23T06:27:02.123Z,9.34
2023-02-23T06:29:29.664Z,9.33
2023-02-23T06:31:59.760Z,9.31
2023-02-23T06:34:28.335Z,9.32
2023-02-23T06:36:56.016Z,9.33
2023-02-23T06:39:23.750Z,9.31
2023-02-23T06:41:53.171Z,9.28
2023-02-23T06:44:20.741Z,9.25
2023-02-23T06:46:48.339Z,9.23
2023-02-23T06:49:16.725Z,9.20
2023-02-23T06:51:44.344Z,9.19
2023-02-23T06:54:11.986Z,9.18
2023-02-23T06:56:39.494Z,9.17
2023-02-23T06:59:08.361Z,9.18
2023-02-23T07:01:38.333Z,9.16
2023-02-23T07:04:06.293Z,9.14
2023-02-23T07:06:35.112Z,9.13
2023-02-23T07:09:02.690Z,9.14
2023-02-23T07:11:30.254Z,9.22
2023-02-23T07:13:58.677Z,9.31
2023-02-23T07:16:28.658Z,9.40
2023-02-23T07:18:56.288Z,9.39
2023-02-23T07:21:24.200Z,9.36
2023-02-23T07:23:51.687Z,9.38
2023-02-23T07:26:19.514Z,9.41
2023-02-23T07:28:47.541Z,9.44
2023-02-23T07:31:15.335Z,9.49
2023-02-23T07:33:44.271Z,9.56
2023-02-23T07:36:12.750Z,9.56
2023-02-23T07:38:40.367Z,9.57
2023-02-23T07:41:08.016Z,9.61
2023-02-23T07:43:35.736Z,9.65
2023-02-23T07:46:03.665Z,9.67
2023-02-23T07:48:31.213Z,9.74
2023-02-23T07:51:00.113Z,9.81
2023-02-23T07:53:28.219Z,9.84
2023-02-23T07:55:59.576Z,9.85
2023-02-23T07:58:27.106Z,9.86
2023-02-23T08:00:55.577Z,9.83
2023-02-23T08:03:23.607Z,9.78
2023-02-23T08:05:51.145Z,9.75
2023-02-23T08:08:20.567Z,9.74
2023-02-23T08:10:49.933Z,9.72
2023-02-23T08:13:18.035Z,9.70
2023-02-23T08:15:45.602Z,9.67
2023-02-23T08:18:13.197Z,9.66
2023-02-23T08:20:40.795Z,9.66
2023-02-23T08:23:08.457Z,9.70
2023-02-23T08:25:37.864Z,9.76
2023-02-23T08:28:06.845Z,9.78
2023-02-23T08:30:35.215Z,9.82
2023-02-23T08:33:03.100Z,9.84
2023-02-23T08:35:31.039Z,9.86
2023-02-23T08:37:58.959Z,9.88
2023-02-23T08:40:28.001Z,9.92
2023-02-23T08:42:56.997Z,9.96
2023-02-23T08:45:24.491Z,10.02
2023-02-23T08:47:52.143Z,10.04
2023-02-23T08:50:19.707Z,10.07
2023-02-23T08:52:47.273Z,10.14
2023-02-23T08:55:16.552Z,10.21
2023-02-23T08:57:44.238Z,10.30
2023-02-23T09:00:16.652Z,10.35
2023-02-23T09:02:47.523Z,10.43
2023-02-23T09:05:15.599Z,10.52
2023-02-23T09:07:44.972Z,10.62
2023-02-23T09:10:14.029Z,10.66
2023-02-23T09:12:41.665Z,10.67
2023-02-23T09:15:10.383Z,10.66
2023-02-23T09:17:39.282Z,10.71
2023-02-23T09:20:07.765Z,10.76
2023-02-23T09:22:36.959Z,10.80
2023-02-23T09:25:05.646Z,10.89
2023-02-23T09:27:33.171Z,10.95
2023-02-23T09:30:00.703Z,11.00
2023-02-23T09:32:28.315Z,11.05
2023-02-23T09:34:57.214Z,11.11
2023-02-23T09:37:25.133Z,11.16
2023-02-23T09:39:52.640Z,11.19
2023-02-23T09:42:36.553Z,11.21
2023-02-23T09:45:13.286Z,11.20
2023-02-23T09:47:51.588Z,11.21
2023-02-23T09:50:24.578Z,11.19
2023-02-23T09:52:57.520Z,11.23
2023-02-23T09:55:26.743Z,11.29
2023-02-23T09:57:55.209Z,11.36
2023-02-23T10:00:27.742Z,11.38
2023-02-23T10:03:17.849Z,11.36
2023-02-23T10:05:49.363Z,11.33
2023-02-23T10:08:27.864Z,11.40
2023-02-23T10:11:03.449Z,11.44
2023-02-23T10:13:40.449Z,11.42
2023-02-23T10:16:16.604Z,11.40
2023-02-23T10:18:51.885Z,11.41
2023-02-23T10:21:30.432Z,11.44
2023-02-23T10:24:01.922Z,11.45
2023-02-23T10:26:36.573Z,11.43
2023-02-23T10:29:06.458Z,11.42
2023-02-23T10:31:42.631Z,11.42
2023-02-23T10:34:15.427Z,11.41
2023-02-23T10:36:46.673Z,11.40
2023-02-23T10:39:14.842Z,11.39
2023-02-23T10:41:43.324Z,11.38
2023-02-23T10:44:20.195Z,11.33
2023-02-23T10:46:55.280Z,11.29
2023-02-23T10:49:30.303Z,11.28
2023-02-23T10:52:02.937Z,11.26
2023-02-23T10:54:39.443Z,11.26
2023-02-23T10:57:09.009Z,11.28
2023-02-23T10:59:36.787Z,11.36
2023-02-23T11:02:23.586Z,11.39
2023-02-23T11:04:53.933Z,11.38
2023-02-23T11:07:29.521Z,11.42
2023-02-23T11:09:59.828Z,11.51
2023-02-23T11:12:29.611Z,11.55
2023-02-23T11:14:58.562Z,11.58
2023-02-23T11:17:30.233Z,11.62
2023-02-23T11:20:03.677Z,11.65
2023-02-23T11:22:36.637Z,11.71
2023-02-23T11:25:16.857Z,11.75
2023-02-23T11:27:51.447Z,11.81
2023-02-23T11:30:22.140Z,11.87
2023-02-23T11:32:52.815Z,11.92
2023-02-23T11:35:30.607Z,12.01
2023-02-23T11:37:59.589Z,12.07
2023-02-23T11:40:29.235Z,12.12
2023-02-23T11:42:58.669Z,12.19
2023-02-23T11:45:27.934Z,12.26
2023-02-23T11:47:59.365Z,12.31
2023-02-23T11:50:29.756Z,12.34
2023-02-23T11:53:03.038Z,12.39
2023-02-23T11:55:32.433Z,12.43
2023-02-23T11:58:10.237Z,12.47
2023-02-23T12:00:38.076Z,12.51
2023-02-23T12:03:06.652Z,12.55
2023-02-23T12:05:34.716Z,12.62
2023-02-23T12:08:07.719Z,12.64
2023-02-23T12:10:40.165Z,12.67
2023-02-23T12:13:26.318Z,12.67
2023-02-23T12:15:59.792Z,12.72
2023-02-23T12:18:39.040Z,12.82
2023-02-23T12:21:18.581Z,12.85
2023-02-23T12:23:52.561Z,12.89
2023-02-23T12:26:24.168Z,12.95
2023-02-23T12:28:59.475Z,12.99
2023-02-23T12:31:31.110Z,12.95
2023-02-23T12:34:02.204Z,12.95
2023-02-23T12:36:38.445Z,13.02
2023-02-23T12:39:17.747Z,13.05
2023-02-23T12:41:52.222Z,13.07
2023-02-23T12:44:32.510Z,13.13
2023-02-23T12:47:05.867Z,13.24
2023-02-23T12:49:38.643Z,13.27
2023-02-23T12:52:14.757Z,13.31
2023-02-23T12:54:46.910Z,13.30
2023-02-23T12:57:23.726Z,13.31
2023-02-23T13:00:36.171Z,13.36
2023-02-23T13:03:29.205Z,13.40
2023-02-23T13:06:03.209Z,13.41
2023-02-23T13:08:42.683Z,13.39
2023-02-23T13:11:22.437Z,13.41
2023-02-23T13:13:55.741Z,13.40
2023-02-23T13:16:29.383Z,13.39
2023-02-23T13:19:06.593Z,13.35
2023-02-23T13:21:37.992Z,13.33
2023-02-23T13:24:10.905Z,13.32
2023-02-23T13:26:46.674Z,13.31
2023-02-23T13:29:27.886Z,13.28
2023-02-23T13:31:55.921Z,13.27
2023-02-23T13:34:28.675Z,13.26
2023-02-23T13:36:56.630Z,13.29
2023-02-23T13:39:47.644Z,13.27
2023-02-23T13:42:31.147Z,13.24
2023-02-23T13:45:12.417Z,13.22
2023-02-23T13:47:46.387Z,13.21
2023-02-23T13:50:21.711Z,13.19
2023-02-23T13:52:54.054Z,13.19
2023-02-23T13:55:48.698Z,13.19
2023-02-23T13:58:23.910Z,13.17
2023-02-23T14:00:55.605Z,13.19
2023-02-23T14:03:27.048Z,13.20
2023-02-23T14:06:00.315Z,13.22
2023-02-23T14:08:34.650Z,13.25
2023-02-23T14:11:03.172Z,13.28
2023-02-23T14:13:34.606Z,13.28
2023-02-23T14:16:19.841Z,13.26
2023-02-23T14:19:12.094Z,13.25
2023-02-23T14:21:46.736Z,13.26
2023-02-23T14:24:18.609Z,13.25
2023-02-23T14:27:03.337Z,13.26
2023-02-23T14:29:40.894Z,13.25
2023-02-23T14:32:31.213Z,13.27
2023-02-23T14:35:01.410Z,13.24
2023-02-23T14:37:32.881Z,13.21
2023-02-23T14:40:12.673Z,13.22
2023-02-23T14:42:41.408Z,13.25
2023-02-23T14:45:20.538Z,13.30
2023-02-23T14:47:51.627Z,13.30
2023-02-23T14:50:27.137Z,13.30
2023-02-23T14:52:56.617Z,13.31
2023-02-23T14:55:29.204Z,13.32
2023-02-23T14:57:58.086Z,13.31
2023-02-23T15:00:32.388Z,13.32
2023-02-23T15:03:02.272Z,13.29
2023-02-23T15:05:32.190Z,13.28
2023-02-23T15:08:01.973Z,13.25
2023-02-23T15:10:33.923Z,13.20
2023-02-23T15:13:02.437Z,13.16
2023-02-23T15:15:31.723Z,13.16
2023-02-23T15:18:04.020Z,13.14
2023-02-23T15:23:03.696Z,13.10
2023-02-23T15:25:37.039Z,13.07
2023-02-23T15:28:25.393Z,13.07
2023-02-23T15:30:56.557Z,13.04
2023-02-23T15:33:28.589Z,13.03
2023-02-23T15:36:01.498Z,13.01
2023-02-23T15:38:43.850Z,12.99
2023-02-23T15:41:16.318Z,12.97
2023-02-23T15:43:44.444Z,12.92
2023-02-23T15:46:24.208Z,12.86
2023-02-23T15:48:54.355Z,12.84
2023-02-23T15:51:27.714Z,12.85
2023-02-23T15:53:55.820Z,12.85
2023-02-23T15:56:27.540Z,12.86
2023-02-23T15:58:58.444Z,12.85
2023-02-23T16:01:30.351Z,12.81
2023-02-23T16:04:01.829Z,12.78
2023-02-23T16:06:34.188Z,12.82
2023-02-23T16:09:19.909Z,12.81
2023-02-23T16:11:51.811Z,12.81
2023-02-23T16:14:21.337Z,12.83
2023-02-23T16:17:08.370Z,12.85
2023-02-23T16:19:41.066Z,12.82
2023-02-23T16:22:19.549Z,12.81
2023-02-23T16:24:54.543Z,12.77
2023-02-23T16:27:22.296Z,12.73
2023-02-23T16:30:00.545Z,12.66
2023-02-23T16:32:37.696Z,12.57
2023-02-23T16:35:16.038Z,12.54
2023-02-23T16:38:02.961Z,12.50
2023-02-23T16:40:30.809Z,12.45
2023-02-23T16:42:59.624Z,12.42
2023-02-23T16:45:29.693Z,12.39
2023-02-23T16:48:03.224Z,12.35
2023-02-23T16:50:33.557Z,12.30
2023-02-23T16:53:03.505Z,12.26
2023-02-23T16:55:33.177Z,12.19
2023-02-23T16:58:03.953Z,12.14
2023-02-23T17:00:33.359Z,12.15
2023-02-23T17:03:06.219Z,12.16
2023-02-23T17:05:34.263Z,12.14
2023-02-23T17:08:01.915Z,12.12
2023-02-23T17:10:35.363Z,12.12
2023-02-23T17:13:05.701Z,12.11
2023-02-23T17:15:36.245Z,12.12
2023-02-23T17:18:06.575Z,12.11
2023-02-23T17:20:34.745Z,12.06
2023-02-23T17:23:03.359Z,12.02
2023-02-23T17:25:31.551Z,12.02
2023-02-23T17:28:05.606Z,12.00
2023-02-23T17:30:33.722Z,11.95
2023-02-23T17:33:02.719Z,11.97
2023-02-23T17:35:37.239Z,11.94
2023-02-23T17:38:06.931Z,11.93
2023-02-23T17:40:36.441Z,11.91
2023-02-23T17:43:06.333Z,11.88
2023-02-23T17:45:33.950Z,11.88
2023-02-23T17:48:01.651Z,11.86
2023-02-23T17:50:31.690Z,11.84
2023-02-23T17:52:59.263Z,11.79
2023-02-23T17:55:27.028Z,11.75
2023-02-23T17:57:54.683Z,11.74
2023-02-23T18:00:22.523Z,11.76
2023-02-23T18:02:50.247Z,11.78
2023-02-23T18:05:18.010Z,11.77
2023-02-23T18:07:48.650Z,11.74
2023-02-23T18:10:17.700Z,11.72
2023-02-23T18:12:45.531Z,11.77
2023-02-23T18:15:13.380Z,11.77
2023-02-23T18:17:40.976Z,11.76
2023-02-23T18:20:09.693Z,11.70
2023-02-23T18:22:37.296Z,11.65
2023-02-23T18:25:07.410Z,11.62
2023-02-23T18:27:35.058Z,11.61
2023-02-23T18:30:02.830Z,11.64
2023-02-23T18:32:30.587Z,11.64
2023-02-23T18:34:58.261Z,11.62
2023-02-23T18:37:28.760Z,11.62
2023-02-23T18:39:57.755Z,11.60
2023-02-23T18:42:27.150Z,11.58
2023-02-23T18:44:54.705Z,11.53
2023-02-23T18:47:22.248Z,11.45
2023-02-23T18:49:49.973Z,11.41
2023-02-23T18:52:17.497Z,11.39
2023-02-23T18:54:45.588Z,11.39
2023-02-23T18:57:13.183Z,11.38
2023-02-23T18:59:42.197Z,11.33
2023-02-23T19:02:10.940Z,11.27
2023-02-23T19:04:39.234Z,11.24
2023-02-23T19:07:06.832Z,11.19
2023-02-23T19:09:34.336Z,11.15
2023-02-23T19:12:02.919Z,11.12
2023-02-23T19:14:48.457Z,11.07
2023-02-23T19:17:18.377Z,11.07
2023-02-23T19:19:45.947Z,11.08
2023-02-23T19:22:13.602Z,11.09
2023-02-23T19:24:41.882Z,11.06
2023-02-23T19:27:10.000Z,11.01
2023-02-23T19:29:37.700Z,10.95
2023-02-23T19:32:05.899Z,10.88
2023-02-23T19:34:43.503Z,10.83
2023-02-23T19:37:11.145Z,10.79
2023-02-23T19:39:39.160Z,10.78
2023-02-23T19:42:07.229Z,10.78
2023-02-23T19:44:34.956Z,10.72
2023-02-23T19:47:02.500Z,10.68
2023-02-23T19:49:30.045Z,10.64
2023-02-23T19:51:58.946Z,10.62
2023-02-23T19:54:33.951Z,10.59
2023-02-23T19:57:01.576Z,10.55
2023-02-23T19:59:29.102Z,10.51
2023-02-23T20:01:56.678Z,10.47
2023-02-23T20:04:24.265Z,10.43
2023-02-23T20:06:52.415Z,10.38
2023-02-23T20:09:21.286Z,10.34
2023-02-23T20:11:49.144Z,10.31
2023-02-23T20:14:17.151Z,10.31
2023-02-23T20:16:46.971Z,10.30
2023-02-23T20:19:14.548Z,10.27
2023-02-23T20:21:43.410Z,10.24
2023-02-23T20:24:12.747Z,10.27
2023-02-23T20:26:41.690Z,10.30
2023-02-23T20:29:12.583Z,10.35
2023-02-23T20:31:50.430Z,10.38
2023-02-23T20:34:22.109Z,10.41
2023-02-23T20:36:51.056Z,10.40
2023-02-23T20:39:19.989Z,10.38
2023-02-23T20:41:53.421Z,10.41
2023-02-23T20:44:22.962Z,10.40
2023-02-23T20:46:51.117Z,10.39
2023-02-23T20:49:19.332Z,10.39
2023-02-23T20:51:48.550Z,10.38
2023-02-23T20:54:16.848Z,10.36
2023-02-23T20:56:45.200Z,10.34
2023-02-23T20:59:15.573Z,10.35
2023-02-23T21:01:45.300Z,10.33
2023-02-23T21:04:13.827Z,10.29
2023-02-23T21:06:41.522Z,10.27
2023-02-23T21:09:12.813Z,10.23
2023-02-23T21:11:40.451Z,10.21
2023-02-23T21:14:08.432Z,10.19
2023-02-23T21:16:41.653Z,10.19
2023-02-23T21:19:09.226Z,10.18
2023-02-23T21:21:39.544Z,10.13
2023-02-23T21:24:07.675Z,10.12
2023-02-23T21:26:35.401Z,10.10
2023-02-23T21:29:04.040Z,10.09
2023-02-23T21:31:32.134Z,10.07
2023-02-23T21:34:05.439Z,10.06
2023-02-23T21:36:33.134Z,10.06
2023-02-23T21:39:01.059Z,10.05
2023-02-23T21:41:33.681Z,10.05
2023-02-23T21:44:01.947Z,10.02
2023-02-23T21:46:29.659Z,10.00
2023-02-23T21:48:57.259Z,10.00
2023-02-23T21:51:26.980Z,10.02
2023-02-23T21:53:58.408Z,10.03
2023-02-23T21:56:25.944Z,10.03
2023-02-23T21:58:55.803Z,10.02
2023-02-23T22:01:26.667Z,9.99
2023-02-23T22:03:54.977Z,9.96
2023-02-23T22:06:25.290Z,9.94
2023-02-23T22:08:54.947Z,9.93
2023-02-23T22:11:24.762Z,9.92
2023-02-23T22:13:58.733Z,9.93
2023-02-23T22:16:27.942Z,9.94
2023-02-23T22:18:55.562Z,9.93
2023-02-23T22:21:23.507Z,9.89
2023-02-23T22:23:53.347Z,9.88
2023-02-23T22:26:22.272Z,9.88
2023-02-23T22:28:49.752Z,9.87
2023-02-23T22:31:17.352Z,9.85
2023-02-23T22:33:45.321Z,9.88
2023-02-23T22:36:14.671Z,9.88
2023-02-23T22:38:42.969Z,9.89
2023-02-23T22:41:11.526Z,9.93
2023-02-23T22:43:41.191Z,9.98
2023-02-23T22:46:09.424Z,10.00
2023-02-23T22:48:38.134Z,10.01
2023-02-23T22:51:07.780Z,10.02
2023-02-23T22:53:35.298Z,9.99
2023-02-23T22:56:03.898Z,9.97
2023-02-23T22:58:33.152Z,9.96
2023-02-23T23:01:06.319Z,9.95
2023-02-23T23:03:36.212Z,9.93
2023-02-23T23:06:05.396Z,9.91
2023-02-23T23:08:36.458Z,9.88
2023-02-23T23:11:09.279Z,9.87
2023-02-23T23:13:40.340Z,9.85
2023-02-23T23:16:16.735Z,9.85
2023-02-23T23:18:54.354Z,9.81
2023-02-23T23:21:24.454Z,9.79
2023-02-23T23:23:54.110Z,9.81
2023-02-23T23:26:23.289Z,9.84
2023-02-23T23:28:52.575Z,9.87
2023-02-23T23:31:27.966Z,9.92
2023-02-23T23:33:59.815Z,9.95
2023-02-23T23:36:29.813Z,9.94
2023-02-23T23:38:57.744Z,9.97
2023-02-23T23:41:26.960Z,9.98
2023-02-23T23:43:57.645Z,9.97
2023-02-23T23:46:28.238Z,9.97
2023-02-23T23:48:57.922Z,9.97
2023-02-23T23:51:28.258Z,9.93
2023-02-23T23:53:55.931Z,9.91
2023-02-23T23:56:23.428Z,9.84
2023-02-23T23:58:52.428Z,9.76
